Time;durP1;ratioP1;P1;durP2;ratioP2;P2;SDS_P1;SDS_P2;PMS_P1;PMS_P2;Temp;Humidity;BMP_temperature;BMP_pressure;BME280_temperature;BME280_humidity;BME280_pressure;Samples;Min_cycle;Max_cycle;Signal;HPM_P1;HPM_P2
2023/03/10 00:00:47;;;;;;;10.85;6.10;;;18.80;99.90;;;;;;4588692;19;20018;-27
2023/03/10 00:02:29;;;;;;;7.40;4.72;;;18.80;99.90;;;;;;4590735;19;20018;-29
2023/03/10 00:04:01;;;;;;;7.88;4.70;;;18.90;99.90;;;;;;4590384;19;20041;-28
2023/03/10 00:05:33;;;;;;;9.95;5.50;;;18.80;99.90;;;;;;4590503;19;20110;-29
2023/03/10 00:07:05;;;;;;;9.32;5.30;;;18.80;99.90;;;;;;4590807;19;20465;-28
2023/03/10 00:08:40;;;;;;;8.25;5.05;;;18.80;99.90;;;;;;4591158;19;20037;-28
2023/03/10 00:10:13;;;;;;;8.40;4.93;;;18.80;99.90;;;;;;4590911;19;20070;-26
2023/03/10 00:11:44;;;;;;;;;;;18.80;99.90;;;;;;4590514;19;20364;-28
2023/03/10 00:13:15;;;;;;;8.32;4.97;;;18.70;99.90;;;;;;4590570;19;19936;-29
2023/03/10 00:14:46;;;;;;;9.60;5.35;;;18.70;99.90;;;;;;4590788;19;20023;-26
2023/03/10 00:16:22;;;;;;;10.57;4.95;;;18.70;99.90;;;;;;4590617;19;20014;-28
2023/03/10 00:17:55;;;;;;;8.45;5.25;;;18.70;99.90;;;;;;4590849;19;20034;-25
2023/03/10 00:19:28;;;;;;;10.15;5.53;;;18.60;99.90;;;;;;4590858;19;20014;-27
2023/03/10 00:21:01;;;;;;;9.10;5.30;;;18.60;99.90;;;;;;4590274;19;20460;-27
2023/03/10 00:22:36;;;;;;;8.50;5.07;;;18.60;99.90;;;;;;4589511;19;20022;-28
2023/03/10 00:24:08;;;;;;;8.95;5.20;;;18.60;99.90;;;;;;4590330;19;20031;-34
2023/03/10 00:25:41;;;;;;;8.48;4.95;;;18.60;99.90;;;;;;4589557;19;20361;-27
2023/03/10 00:27:14;;;;;;;8.25;5.45;;;18.50;99.90;;;;;;4589655;19;20011;-27
2023/03/10 00:28:45;;;;;;;8.45;4.50;;;18.50;99.90;;;;;;4590123;19;20361;-27
2023/03/10 00:30:17;;;;;;;;;;;18.50;99.90;;;;;;4591563;19;20046;-25
2023/03/10 00:31:48;;;;;;;8.52;4.55;;;18.40;99.90;;;;;;4590239;19;19974;-26
2023/03/10 00:33:19;;;;;;;7.97;5.28;;;18.40;99.90;;;;;;4590714;19;20074;-25
2023/03/10 00:34:52;;;;;;;8.90;4.95;;;18.40;99.90;;;;;;4587913;19;20089;-29
2023/03/10 00:36:27;;;;;;;7.45;4.60;;;18.40;99.90;;;;;;4590168;19;20471;-27
2023/03/10 00:38:01;;;;;;;7.22;4.53;;;18.30;99.90;;;;;;4590263;19;20633;-29
2023/03/10 00:39:32;;;;;;;6.95;4.38;;;18.40;99.90;;;;;;4590433;19;20022;-28
2023/03/10 00:41:06;;;;;;;8.70;4.90;;;18.30;99.90;;;;;;4588609;19;20029;-27
2023/03/10 00:42:37;;;;;;;9.88;4.88;;;18.30;99.90;;;;;;4589865;19;20022;-30
2023/03/10 00:44:09;;;;;;;;;;;18.30;99.90;;;;;;4590993;19;20015;-27
2023/03/10 00:45:40;;;;;;;9.82;4.75;;;18.20;99.90;;;;;;4590438;19;19919;-25
2023/03/10 00:47:11;;;;;;;8.68;5.18;;;18.20;99.90;;;;;;4589993;19;20037;-29
2023/03/10 00:48:43;;;;;;;9.00;4.50;;;18.20;99.90;;;;;;4590037;19;20492;-25
2023/03/10 00:50:15;;;;;;;6.75;4.65;;;18.20;99.90;;;;;;4590398;19;20014;-27
2023/03/10 00:51:47;;;;;;;9.95;5.50;;;18.10;99.90;;;;;;4589993;19;20024;-27
2023/03/10 00:53:20;;;;;;;7.55;4.50;;;18.10;99.90;;;;;;4589851;19;20468;-26
2023/03/10 00:54:53;;;;;;;8.20;4.28;;;18.10;99.90;;;;;;4590246;19;20018;-27
2023/03/10 00:56:25;;;;;;;7.82;4.63;;;18.10;99.90;;;;;;4590380;19;20013;-27
2023/03/10 00:57:58;;;;;;;8.05;4.25;;;18.10;99.90;;;;;;4589211;19;20011;-26
2023/03/10 00:59:31;;;;;;;7.68;4.57;;;18.10;99.90;;;;;;4587840;19;20030;-27
2023/03/10 01:01:03;;;;;;;5.68;3.78;;;18.00;99.90;;;;;;4588899;19;20482;-27
2023/03/10 01:02:34;;;;;;;;;;;18.00;99.90;;;;;;4590690;19;20039;-26
2023/03/10 01:04:13;;;;;;;7.20;4.45;;;18.00;99.90;;;;;;4589927;19;20261;-26
2023/03/10 01:05:45;;;;;;;7.68;4.75;;;18.00;99.90;;;;;;4588704;19;20006;-29
2023/03/10 01:07:18;;;;;;;7.30;4.25;;;17.90;99.90;;;;;;4589379;19;20460;-28
2023/03/10 01:08:49;;;;;;;7.82;4.65;;;17.90;99.90;;;;;;4590139;19;20015;-28
2023/03/10 01:10:21;;;;;;;6.57;4.03;;;17.90;99.90;;;;;;4589874;19;20042;-31
2023/03/10 01:11:54;;;;;;;6.97;4.28;;;17.90;99.90;;;;;;4589986;19;20022;-28
2023/03/10 01:13:26;;;;;;;8.23;4.65;;;17.90;99.90;;;;;;4589922;19;20326;-26
2023/03/10 01:14:59;;;;;;;8.35;4.72;;;17.90;99.90;;;;;;4590062;19;20014;-26
2023/03/10 01:16:30;;;;;;;7.55;4.40;;;17.90;99.90;;;;;;4589895;19;20014;-28
2023/03/10 01:18:03;;;;;;;7.07;4.45;;;17.80;99.90;;;;;;4589536;19;20011;-26
2023/03/10 01:19:35;;;;;;;7.60;4.45;;;17.80;99.90;;;;;;4589479;19;20483;-27
2023/03/10 01:21:37;;;;;;;7.78;4.30;;;17.80;99.90;;;;;;4588984;19;20006;-30
2023/03/10 01:23:20;;;;;;;7.32;4.45;;;17.80;99.90;;;;;;4588774;19;20010;-27
2023/03/10 01:24:51;;;;;;;7.03;3.97;;;17.80;99.90;;;;;;4588393;19;20010;-28
2023/03/10 01:26:24;;;;;;;8.20;4.20;;;17.80;99.90;;;;;;4589182;19;20346;-28
2023/03/10 01:27:55;;;;;;;5.55;3.78;;;17.70;99.90;;;;;;4588119;19;20089;-29
2023/03/10 01:29:26;;;;;;;6.00;3.90;;;17.70;99.90;;;;;;4588419;19;20006;-27
2023/03/10 01:30:58;;;;;;;7.22;4.40;;;17.70;99.90;;;;;;4589013;19;20021;-28
2023/03/10 01:32:29;;;;;;;7.63;4.05;;;17.70;99.90;;;;;;4589505;19;20077;-28
2023/03/10 01:34:00;;;;;;;7.35;4.40;;;17.70;99.90;;;;;;4588715;19;20476;-28
2023/03/10 01:35:34;;;;;;;6.38;3.95;;;17.60;99.90;;;;;;4589114;19;20014;-28
2023/03/10 01:37:05;;;;;;;6.97;4.32;;;17.60;99.90;;;;;;4589124;19;20488;-27
2023/03/10 01:38:37;;;;;;;8.20;4.88;;;17.60;99.90;;;;;;4589186;19;20017;-28
2023/03/10 01:40:15;;;;;;;6.75;3.92;;;17.60;99.90;;;;;;4588395;19;20007;-26
2023/03/10 01:41:47;;;;;;;6.85;4.28;;;17.60;99.90;;;;;;4587494;19;20022;-27
2023/03/10 01:43:26;;;;;;;7.15;4.72;;;17.60;99.90;;;;;;4589310;19;20392;-27
2023/03/10 01:45:29;;;;;;;5.93;3.65;;;17.60;99.90;;;;;;4589023;19;20033;-29
2023/03/10 01:47:03;;;;;;;7.55;4.13;;;17.60;99.90;;;;;;4588944;19;20013;-30
2023/03/10 01:48:35;;;;;;;6.05;4.15;;;17.50;99.90;;;;;;4589387;19;20010;-27
2023/03/10 01:50:12;;;;;;;6.95;4.05;;;17.60;99.90;;;;;;4588929;19;20074;-28
2023/03/10 01:51:51;;;;;;;6.20;3.83;;;17.50;99.90;;;;;;4588190;19;20037;-26
2023/03/10 01:53:24;;;;;;;7.50;4.30;;;17.50;99.90;;;;;;4587773;19;20014;-27
2023/03/10 01:54:59;;;;;;;5.47;4.03;;;17.50;99.90;;;;;;4587712;19;20488;-27
2023/03/10 01:56:33;;;;;;;7.60;4.50;;;17.50;99.90;;;;;;4589043;19;20066;-27
2023/03/10 01:58:06;;;;;;;6.68;4.10;;;17.50;99.90;;;;;;4587548;19;20015;-27
2023/03/10 01:59:37;;;;;;;6.60;4.18;;;17.50;99.90;;;;;;4587362;19;20014;-26
2023/03/10 02:01:09;;;;;;;7.50;4.68;;;17.40;99.90;;;;;;4587042;19;20014;-26
2023/03/10 02:02:52;;;;;;;7.30;4.45;;;17.50;99.90;;;;;;4588517;19;20014;-29
2023/03/10 02:04:42;;;;;;;6.50;4.03;;;17.40;99.90;;;;;;4587625;19;20372;-26
2023/03/10 02:06:14;;;;;;;7.38;4.63;;;17.40;99.90;;;;;;4588563;19;20353;-26
2023/03/10 02:07:46;;;;;;;6.72;3.80;;;17.40;99.90;;;;;;4587772;19;20079;-28
2023/03/10 02:09:21;;;;;;;5.50;3.80;;;17.40;99.90;;;;;;4586801;19;19999;-29
2023/03/10 02:10:53;;;;;;;7.25;4.45;;;17.40;99.90;;;;;;4588339;19;20424;-27
2023/03/10 02:12:26;;;;;;;7.18;4.22;;;17.40;99.90;;;;;;4592008;19;20018;-29
2023/03/10 02:14:01;;;;;;;6.43;4.28;;;17.40;99.90;;;;;;4593161;19;20033;-26
2023/03/10 02:15:33;;;;;;;5.72;3.85;;;17.40;99.90;;;;;;4592213;19;20043;-27
2023/03/10 02:17:06;;;;;;;6.50;4.32;;;17.30;99.90;;;;;;4592846;19;20019;-26
2023/03/10 02:18:39;;;;;;;7.20;4.10;;;17.30;99.90;;;;;;4591951;19;20011;-25
2023/03/10 02:20:55;;;;;;;6.45;3.85;;;17.30;99.90;;;;;;4592027;19;20009;-27
2023/03/10 02:22:26;;;;;;;6.60;4.35;;;17.30;99.90;;;;;;4590740;19;20477;-30
2023/03/10 02:24:10;;;;;;;6.85;4.13;;;17.30;99.90;;;;;;4591018;19;20014;-30
2023/03/10 02:25:49;;;;;;;5.95;4.13;;;17.30;99.90;;;;;;4590863;19;20018;-27
2023/03/10 02:27:30;;;;;;;5.82;3.67;;;17.30;99.90;;;;;;4590749;19;20014;-28
2023/03/10 02:29:02;;;;;;;5.95;3.70;;;17.20;99.90;;;;;;4590789;19;20021;-29
2023/03/10 02:30:35;;;;;;;7.78;4.40;;;17.20;99.90;;;;;;4590917;19;20010;-27
2023/03/10 02:32:07;;;;;;;6.78;4.20;;;17.30;99.90;;;;;;4590626;19;20022;-28
2023/03/10 02:33:38;;;;;;;6.63;4.10;;;17.30;99.90;;;;;;4590680;19;20037;-27
2023/03/10 02:35:09;;;;;;;;;;;17.20;99.90;;;;;;4591431;19;20403;-26
2023/03/10 02:36:41;;;;;;;7.07;4.50;;;17.20;99.90;;;;;;4590491;19;19935;-26
2023/03/10 02:38:12;;;;;;;;;;;17.20;99.90;;;;;;4591829;19;20006;-30
2023/03/10 02:39:44;;;;;;;6.43;4.47;;;17.20;99.90;;;;;;4590619;19;19915;-27
2023/03/10 02:41:20;;;;;;;7.00;4.18;;;17.20;99.90;;;;;;4589625;19;20006;-25
2023/03/10 02:42:52;;;;;;;6.60;3.88;;;17.20;99.90;;;;;;4590677;19;20003;-28
2023/03/10 02:44:25;;;;;;;6.07;3.80;;;17.20;99.90;;;;;;4590639;19;20014;-27
2023/03/10 02:45:58;;;;;;;6.78;3.70;;;17.20;99.90;;;;;;4590456;19;20044;-25
2023/03/10 02:47:31;;;;;;;6.22;4.13;;;17.10;99.90;;;;;;4590247;19;20093;-27
2023/03/10 02:49:03;;;;;;;7.43;4.82;;;17.20;99.90;;;;;;4590369;19;20025;-27
2023/03/10 02:50:37;;;;;;;6.47;3.85;;;17.10;99.90;;;;;;4590405;19;20031;-28
2023/03/10 02:52:34;;;;;;;5.43;3.40;;;17.10;99.90;;;;;;4590265;19;20018;-30
2023/03/10 02:54:07;;;;;;;7.22;4.40;;;17.20;99.90;;;;;;4590755;19;20014;-28
2023/03/10 02:55:39;;;;;;;6.45;4.10;;;17.10;99.90;;;;;;4592704;19;20077;-27
2023/03/10 02:57:10;;;;;;;6.60;3.70;;;17.10;99.90;;;;;;4592697;19;20011;-30
2023/03/10 02:58:43;;;;;;;5.30;3.65;;;17.10;99.90;;;;;;4591753;19;20045;-30
2023/03/10 03:00:16;;;;;;;6.15;4.00;;;17.10;99.90;;;;;;4591298;19;20015;-28
2023/03/10 03:01:48;;;;;;;5.63;3.70;;;17.10;99.90;;;;;;4591232;19;20018;-32
2023/03/10 03:03:20;;;;;;;;;;;17.10;99.90;;;;;;4593283;19;20468;-28
2023/03/10 03:04:51;;;;;;;7.03;4.15;;;17.10;99.90;;;;;;4592027;19;19922;-31
2023/03/10 03:06:23;;;;;;;6.55;3.85;;;17.10;99.90;;;;;;4592338;19;20010;-28
2023/03/10 03:07:56;;;;;;;6.00;3.88;;;17.10;99.90;;;;;;4591082;19;20018;-29
2023/03/10 03:09:27;;;;;;;6.60;4.13;;;17.10;99.90;;;;;;4591901;19;20010;-28
2023/03/10 03:10:59;;;;;;;6.30;4.43;;;17.00;99.90;;;;;;4592298;19;20014;-28
2023/03/10 03:12:30;;;;;;;6.10;3.47;;;17.00;99.90;;;;;;4592121;19;20078;-26
2023/03/10 03:14:02;;;;;;;7.70;4.47;;;17.00;99.90;;;;;;4592172;19;20011;-28
2023/03/10 03:15:33;;;;;;;5.68;3.90;;;17.00;99.90;;;;;;4592036;19;20354;-25
2023/03/10 03:17:04;;;;;;;5.88;4.10;;;17.00;99.90;;;;;;4591024;19;20010;-28
2023/03/10 03:18:37;;;;;;;5.38;3.72;;;17.00;99.90;;;;;;4591559;19;20022;-26
2023/03/10 03:20:13;;;;;;;6.70;3.90;;;17.00;99.90;;;;;;4592167;19;20029;-26
2023/03/10 03:21:48;;;;;;;7.35;4.18;;;17.00;99.90;;;;;;4590273;19;20026;-27
2023/03/10 03:23:19;;;;;;;5.90;3.80;;;17.00;99.90;;;;;;4591128;19;20054;-26
2023/03/10 03:24:52;;;;;;;6.15;3.35;;;17.00;99.90;;;;;;4591574;19;20014;-28
2023/03/10 03:26:25;;;;;;;7.63;4.10;;;17.00;99.90;;;;;;4592466;19;20074;-28
2023/03/10 03:27:58;;;;;;;6.50;3.78;;;17.00;99.90;;;;;;4590581;19;20006;-26
2023/03/10 03:29:29;;;;;;;5.55;3.60;;;17.00;99.90;;;;;;4591332;19;20017;-29
2023/03/10 03:31:01;;;;;;;5.03;3.65;;;17.00;99.90;;;;;;4591683;19;20027;-29
2023/03/10 03:32:33;;;;;;;5.43;3.72;;;17.00;99.90;;;;;;4591662;19;20476;-26
2023/03/10 03:34:05;;;;;;;6.38;4.25;;;16.90;99.90;;;;;;4590801;19;20655;-30
2023/03/10 03:35:39;;;;;;;6.22;3.70;;;16.90;99.90;;;;;;4591527;19;20026;-28
2023/03/10 03:37:12;;;;;;;5.50;3.72;;;16.90;99.90;;;;;;4591697;19;20010;-26
2023/03/10 03:38:43;;;;;;;5.80;3.80;;;16.90;99.90;;;;;;4591920;19;20353;-25
2023/03/10 03:40:16;;;;;;;6.07;4.00;;;16.90;99.90;;;;;;4591415;19;20028;-27
2023/03/10 03:41:52;;;;;;;5.32;3.60;;;16.90;99.90;;;;;;4589306;19;20519;-27
2023/03/10 03:43:26;;;;;;;5.88;3.92;;;16.90;99.90;;;;;;4591407;19;20016;-28
2023/03/10 03:44:57;;;;;;;5.25;3.50;;;16.90;99.90;;;;;;4590601;19;20015;-28
2023/03/10 03:46:30;;;;;;;4.82;3.42;;;16.90;99.90;;;;;;4591067;19;20011;-28
2023/03/10 03:48:01;;;;;;;6.22;3.83;;;16.90;99.90;;;;;;4591554;19;20078;-27
2023/03/10 03:49:34;;;;;;;5.57;3.70;;;16.90;99.90;;;;;;4591220;19;20026;-26
2023/03/10 03:51:05;;;;;;;7.55;3.97;;;16.90;99.90;;;;;;4591284;19;20033;-29
2023/03/10 03:52:39;;;;;;;6.53;3.83;;;16.90;99.90;;;;;;4591227;19;20037;-26
2023/03/10 03:54:10;;;;;;;5.72;4.25;;;16.90;99.90;;;;;;4591115;19;20018;-30
2023/03/10 03:55:45;;;;;;;5.15;3.42;;;16.90;99.90;;;;;;4590757;19;20010;-27
2023/03/10 03:57:16;;;;;;;8.25;4.30;;;16.90;99.90;;;;;;4591116;19;20021;-27
2023/03/10 03:58:50;;;;;;;5.22;3.72;;;16.90;99.90;;;;;;4591034;19;20014;-26
2023/03/10 04:00:23;;;;;;;6.13;3.58;;;16.90;99.90;;;;;;4589618;19;20479;-30
2023/03/10 04:01:55;;;;;;;4.72;3.25;;;16.80;99.90;;;;;;4589017;19;20007;-25
2023/03/10 04:03:26;;;;;;;6.10;4.00;;;16.90;99.90;;;;;;4590641;19;20025;-29
2023/03/10 04:05:00;;;;;;;5.13;3.72;;;16.80;99.90;;;;;;4589970;19;20010;-27
2023/03/10 04:06:31;;;;;;;6.53;3.85;;;16.80;99.90;;;;;;4590691;19;20033;-28
2023/03/10 04:08:04;;;;;;;;;;;16.80;99.90;;;;;;4592190;19;20015;-28
2023/03/10 04:09:39;;;;;;;5.72;3.72;;;16.80;99.90;;;;;;4590910;19;19914;-28
2023/03/10 04:11:11;;;;;;;6.18;3.80;;;16.80;99.90;;;;;;4591029;19;20089;-29
2023/03/10 04:12:43;;;;;;;;;;;16.80;99.90;;;;;;4592150;19;20014;-26
2023/03/10 04:14:15;;;;;;;6.20;3.95;;;16.80;99.90;;;;;;4590803;19;20392;-27
2023/03/10 04:15:46;;;;;;;5.38;3.47;;;16.80;99.90;;;;;;4590716;19;20700;-27
2023/03/10 04:17:18;;;;;;;6.35;3.58;;;16.80;99.90;;;;;;4591204;19;20419;-31
2023/03/10 04:18:49;;;;;;;5.78;4.07;;;16.80;99.90;;;;;;4591160;19;20011;-26
2023/03/10 04:20:23;;;;;;;7.13;4.90;;;16.80;99.90;;;;;;4589562;19;20026;-26
2023/03/10 04:21:55;;;;;;;5.57;4.00;;;16.80;99.90;;;;;;4589081;19;20086;-26
2023/03/10 04:23:26;;;;;;;;;;;16.80;99.90;;;;;;4591638;19;20015;-26
2023/03/10 04:24:58;;;;;;;5.82;3.67;;;16.80;99.90;;;;;;4590773;19;20255;-27
2023/03/10 04:26:30;;;;;;;5.20;3.70;;;16.80;99.90;;;;;;4590537;19;20018;-28
2023/03/10 04:28:02;;;;;;;6.57;3.50;;;16.80;99.90;;;;;;4590396;19;20590;-28
2023/03/10 04:29:33;;;;;;;6.80;4.00;;;16.80;99.90;;;;;;4590682;19;20032;-26
2023/03/10 04:31:14;;;;;;;6.80;4.05;;;16.80;99.90;;;;;;4589286;19;20476;-27
2023/03/10 04:32:45;;;;;;;6.38;3.72;;;16.80;99.90;;;;;;4589614;19;20021;-31
2023/03/10 04:34:17;;;;;;;5.30;3.53;;;16.80;99.90;;;;;;4590098;19;20468;-28
2023/03/10 04:35:50;;;;;;;6.47;4.00;;;16.80;99.90;;;;;;4590275;19;20522;-28
2023/03/10 04:37:22;;;;;;;4.57;3.30;;;16.80;99.90;;;;;;4590372;19;20043;-27
2023/03/10 04:38:54;;;;;;;5.30;3.75;;;16.80;99.90;;;;;;4590110;19;20460;-26
2023/03/10 04:40:26;;;;;;;5.43;3.80;;;16.80;99.90;;;;;;4592561;19;20089;-28
2023/03/10 04:41:58;;;;;;;5.63;3.83;;;16.80;99.90;;;;;;4588963;19;20504;-28
2023/03/10 04:43:31;;;;;;;4.85;3.50;;;16.80;99.90;;;;;;4589104;19;20033;-27
2023/03/10 04:45:03;;;;;;;5.72;3.55;;;16.90;99.90;;;;;;4589814;19;20010;-25
2023/03/10 04:46:35;;;;;;;5.07;3.50;;;16.90;99.90;;;;;;4590055;19;20077;-26
2023/03/10 04:48:07;;;;;;;4.93;3.35;;;16.90;99.90;;;;;;4590167;19;20013;-26
2023/03/10 04:49:39;;;;;;;5.43;3.10;;;17.00;99.90;;;;;;4590834;19;20011;-26
2023/03/10 04:51:11;;;;;;;5.50;3.13;;;17.10;99.90;;;;;;4592454;19;20019;-25
2023/03/10 04:52:45;;;;;;;5.90;3.30;;;17.20;99.90;;;;;;4592004;19;20472;-29
2023/03/10 04:54:18;;;;;;;5.05;2.92;;;17.30;99.90;;;;;;4591981;19;20026;-28
2023/03/10 04:55:50;;;;;;;4.35;2.75;;;17.50;99.90;;;;;;4590951;19;20037;-26
2023/03/10 04:57:23;;;;;;;15.05;13.55;;;17.70;99.90;;;;;;4591654;19;20505;-28
2023/03/10 04:58:54;;;;;;;16.15;14.45;;;16.80;93.90;;;;;;4589256;19;20006;-28
2023/03/10 05:00:27;;;;;;;17.20;15.40;;;15.70;93.70;;;;;;4589436;19;20016;-27
2023/03/10 05:01:59;;;;;;;17.20;15.40;;;14.90;94.20;;;;;;4589277;19;20019;-25
2023/03/10 05:03:30;;;;;;;;;;;14.20;94.60;;;;;;4591324;19;20014;-26
2023/03/10 05:05:02;;;;;;;17.93;16.00;;;13.80;95.30;;;;;;4590181;19;21050;-26
2023/03/10 05:06:34;;;;;;;17.73;15.87;;;13.50;95.30;;;;;;4590480;19;20476;-31
2023/03/10 05:08:05;;;;;;;18.75;16.63;;;13.20;95.60;;;;;;4590442;19;20465;-26
2023/03/10 05:09:38;;;;;;;19.27;16.80;;;12.90;95.80;;;;;;4590217;19;20014;-27
2023/03/10 05:11:09;;;;;;;17.23;15.38;;;12.60;96.00;;;;;;4590514;19;21019;-28
2023/03/10 05:12:41;;;;;;;;;;;12.50;96.10;;;;;;4590975;19;20021;-27
2023/03/10 05:14:12;;;;;;;18.83;15.50;;;12.40;96.50;;;;;;4589412;19;20292;-27
2023/03/10 05:15:44;;;;;;;17.73;14.95;;;12.20;96.50;;;;;;4589220;19;20469;-28
2023/03/10 05:17:15;;;;;;;18.70;15.95;;;12.20;96.70;;;;;;4589914;19;20014;-24
2023/03/10 05:18:47;;;;;;;17.07;14.43;;;12.10;96.90;;;;;;4591108;19;20010;-27
2023/03/10 05:20:19;;;;;;;18.42;16.00;;;12.10;97.00;;;;;;4590568;19;20512;-26
2023/03/10 05:21:52;;;;;;;17.37;14.73;;;12.10;96.90;;;;;;4588380;19;20019;-27
2023/03/10 05:23:23;;;;;;;17.57;15.40;;;12.10;96.80;;;;;;4590472;19;20457;-27
2023/03/10 05:24:54;;;;;;;18.27;15.73;;;12.10;96.90;;;;;;4590279;19;21236;-27
2023/03/10 05:26:26;;;;;;;18.90;15.63;;;12.00;96.90;;;;;;4589772;19;20019;-27
2023/03/10 05:27:58;;;;;;;;;;;12.00;97.00;;;;;;4590136;19;20069;-28
2023/03/10 05:29:29;;;;;;;18.30;15.30;;;11.90;97.10;;;;;;4587668;19;19917;-27
2023/03/10 05:31:00;;;;;;;18.67;16.40;;;11.90;97.10;;;;;;4588642;19;20488;-28
2023/03/10 05:32:35;;;;;;;19.55;16.40;;;11.90;97.20;;;;;;4588516;19;20524;-28
2023/03/10 05:34:06;;;;;;;18.20;16.03;;;11.80;97.30;;;;;;4589624;19;20018;-26
2023/03/10 05:35:38;;;;;;;19.08;16.33;;;11.80;97.30;;;;;;4589724;19;20496;-26
2023/03/10 05:37:09;;;;;;;17.40;15.48;;;11.70;97.40;;;;;;4586472;19;20079;-26
2023/03/10 05:38:40;;;;;;;18.20;15.85;;;11.70;97.40;;;;;;4588987;19;20018;-23
2023/03/10 05:40:13;;;;;;;18.08;15.63;;;11.70;97.40;;;;;;4589377;19;20025;-25
2023/03/10 05:41:44;;;;;;;18.50;15.13;;;11.70;97.40;;;;;;4588469;19;20035;-25
2023/03/10 05:43:15;;;;;;;17.35;15.05;;;11.70;97.50;;;;;;4586612;19;20516;-28
2023/03/10 05:44:47;;;;;;;18.65;16.17;;;11.70;97.50;;;;;;4588277;19;20071;-25
2023/03/10 05:46:18;;;;;;;18.60;16.55;;;11.70;97.50;;;;;;4590816;19;20067;-26
2023/03/10 05:47:49;;;;;;;22.27;19.23;;;11.70;97.50;;;;;;4591349;19;20025;-25
2023/03/10 05:49:22;;;;;;;39.15;26.55;;;11.70;97.50;;;;;;4591840;19;20037;-28
2023/03/10 05:51:01;;;;;;;46.30;31.20;;;11.70;97.60;;;;;;4594779;19;20044;-28
2023/03/10 05:52:36;;;;;;;35.63;27.23;;;11.70;97.60;;;;;;4594641;19;20488;-31
2023/03/10 05:54:10;;;;;;;27.03;23.97;;;11.70;97.60;;;;;;4593623;19;20539;-27
2023/03/10 05:55:42;;;;;;;26.63;23.73;;;11.70;97.60;;;;;;4593598;19;20493;-26
2023/03/10 05:57:14;;;;;;;25.37;22.67;;;11.70;97.60;;;;;;4593541;19;20468;-27
2023/03/10 05:58:46;;;;;;;27.90;22.50;;;11.70;97.60;;;;;;4593267;19;21083;-29
2023/03/10 06:00:17;;;;;;;27.90;22.83;;;11.70;97.60;;;;;;4590951;19;20357;-27
2023/03/10 06:01:50;;;;;;;23.37;18.93;;;11.70;97.60;;;;;;4590763;19;20348;-26
2023/03/10 06:03:22;;;;;;;27.75;19.58;;;11.60;97.60;;;;;;4593297;19;20455;-29
2023/03/10 06:04:54;;;;;;;27.43;19.80;;;11.60;97.70;;;;;;4593391;19;20007;-28
2023/03/10 06:06:28;;;;;;;27.87;19.87;;;11.60;97.80;;;;;;4592362;19;21008;-29
2023/03/10 06:07:59;;;;;;;27.02;20.27;;;11.60;97.80;;;;;;4593043;19;21067;-28
2023/03/10 06:09:31;;;;;;;22.85;17.90;;;11.60;97.70;;;;;;4593524;19;20014;-27
2023/03/10 06:11:04;;;;;;;24.53;18.53;;;11.70;97.80;;;;;;4590126;19;20085;-25
2023/03/10 06:12:37;;;;;;;18.87;15.03;;;11.70;97.80;;;;;;4594549;19;20484;-27
2023/03/10 06:14:09;;;;;;;20.55;15.50;;;11.80;97.70;;;;;;4593218;19;20421;-26
2023/03/10 06:15:40;;;;;;;;;;;11.90;97.60;;;;;;4593598;19;20073;-27
2023/03/10 06:17:11;;;;;;;18.73;15.77;;;12.00;97.70;;;;;;4593466;19;19941;-28
2023/03/10 06:18:43;;;;;;;16.57;14.30;;;12.00;97.40;;;;;;4593044;19;20042;-27
2023/03/10 06:20:14;;;;;;;16.65;14.77;;;12.00;97.40;;;;;;4591983;19;20813;-26
2023/03/10 06:21:47;;;;;;;17.90;15.53;;;12.10;97.80;;;;;;4591508;19;20078;-26
2023/03/10 06:23:19;;;;;;;18.43;16.03;;;12.10;97.30;;;;;;4592232;19;20523;-28
2023/03/10 06:24:52;;;;;;;17.53;15.40;;;12.10;97.20;;;;;;4591962;19;20444;-28
2023/03/10 06:26:24;;;;;;;17.10;15.20;;;12.00;97.40;;;;;;4592494;19;21075;-28
2023/03/10 06:27:57;;;;;;;20.00;16.83;;;11.90;97.50;;;;;;4592896;19;20425;-25
2023/03/10 06:29:30;;;;;;;19.83;16.03;;;11.80;97.60;;;;;;4593314;19;20441;-30
2023/03/10 06:31:05;;;;;;;23.38;17.95;;;11.70;97.70;;;;;;4593210;19;20524;-28
2023/03/10 06:32:38;;;;;;;26.37;18.77;;;11.70;97.80;;;;;;4592930;19;20022;-27
2023/03/10 06:34:09;;;;;;;27.17;18.50;;;11.60;97.90;;;;;;4592524;19;20462;-27
2023/03/10 06:35:40;;;;;;;28.83;18.50;;;11.60;97.90;;;;;;4593058;19;20474;-26
2023/03/10 06:37:11;;;;;;;22.48;17.08;;;11.60;98.00;;;;;;4591909;19;20442;-25
2023/03/10 06:38:42;;;;;;;22.90;17.42;;;11.60;98.00;;;;;;4592361;19;20396;-29
2023/03/10 06:40:14;;;;;;;;;;;11.50;98.10;;;;;;4592601;19;20014;-28
2023/03/10 06:41:45;;;;;;;21.37;16.67;;;11.50;98.20;;;;;;4591003;19;19910;-25
2023/03/10 06:43:18;;;;;;;17.60;14.67;;;11.50;98.20;;;;;;4592577;19;21077;-25
2023/03/10 06:44:53;;;;;;;22.30;17.40;;;11.50;98.20;;;;;;4592840;19;20473;-31
2023/03/10 06:46:26;;;;;;;20.17;15.40;;;11.50;98.20;;;;;;4591480;19;21140;-25
2023/03/10 06:47:58;;;;;;;17.33;14.47;;;11.50;98.50;;;;;;4592074;19;20476;-27
2023/03/10 06:49:31;;;;;;;19.87;14.93;;;11.50;98.30;;;;;;4591569;19;20429;-30
2023/03/10 06:51:10;;;;;;;19.57;14.73;;;11.50;98.30;;;;;;4591839;19;21438;-28
2023/03/10 06:52:44;;;;;;;17.67;13.87;;;11.60;98.40;;;;;;4591439;19;20745;-25
2023/03/10 06:54:17;;;;;;;21.03;15.50;;;11.60;98.30;;;;;;4590953;19;20449;-27
2023/03/10 06:56:05;;;;;;;21.17;16.27;;;11.60;98.20;;;;;;4592167;19;20528;-28
2023/03/10 06:57:38;;;;;;;19.40;15.80;;;11.60;98.30;;;;;;4590151;19;20476;-29
2023/03/10 06:59:09;;;;;;;16.67;13.93;;;11.50;98.40;;;;;;4592357;19;20515;-27
2023/03/10 07:00:40;;;;;;;18.77;14.93;;;11.50;98.40;;;;;;4591192;19;20013;-28
2023/03/10 07:02:13;;;;;;;20.80;16.10;;;11.50;98.40;;;;;;4592285;19;20062;-25
2023/03/10 07:03:45;;;;;;;;;;;11.50;98.50;;;;;;4593013;19;20457;-27
2023/03/10 07:05:16;;;;;;;20.53;16.23;;;11.50;98.60;;;;;;4592646;19;19919;-27
2023/03/10 07:06:49;;;;;;;17.50;13.97;;;11.40;98.50;;;;;;4592102;19;21097;-28
2023/03/10 07:08:20;;;;;;;21.98;18.15;;;11.40;98.60;;;;;;4592490;19;20437;-24
2023/03/10 07:09:53;;;;;;;22.10;17.13;;;11.40;98.60;;;;;;4592288;19;20021;-26
2023/03/10 07:11:24;;;;;;;23.92;18.02;;;11.40;98.70;;;;;;4592473;19;20429;-25
2023/03/10 07:12:57;;;;;;;22.67;17.00;;;11.40;98.70;;;;;;4591003;19;20082;-28
2023/03/10 07:14:28;;;;;;;22.30;17.17;;;11.40;98.70;;;;;;4591833;19;20014;-27
2023/03/10 07:16:00;;;;;;;21.20;17.33;;;11.40;98.70;;;;;;4592034;19;20493;-26
2023/03/10 07:17:31;;;;;;;22.13;17.70;;;11.40;98.80;;;;;;4592079;19;20375;-25
2023/03/10 07:19:03;;;;;;;20.75;17.60;;;11.40;99.00;;;;;;4591984;19;20037;-24
2023/03/10 07:20:39;;;;;;;20.70;17.77;;;11.40;98.80;;;;;;4592286;19;20037;-27
2023/03/10 07:22:12;;;;;;;19.37;17.10;;;11.40;98.80;;;;;;4589631;19;20439;-26
2023/03/10 07:23:43;;;;;;;21.67;17.67;;;11.40;98.90;;;;;;4591818;19;20459;-29
2023/03/10 07:25:16;;;;;;;19.77;16.93;;;11.30;98.90;;;;;;4591897;19;20007;-27
2023/03/10 07:26:48;;;;;;;19.27;15.60;;;11.30;98.90;;;;;;4589775;19;20436;-26
2023/03/10 07:28:19;;;;;;;17.98;15.10;;;11.40;99.00;;;;;;4590603;19;20445;-27
2023/03/10 07:29:50;;;;;;;20.30;16.30;;;11.40;99.00;;;;;;4591710;19;20028;-27
2023/03/10 07:31:22;;;;;;;20.05;17.20;;;11.40;99.00;;;;;;4591743;19;20368;-26
2023/03/10 07:32:54;;;;;;;22.83;17.90;;;11.40;99.00;;;;;;4590653;19;20047;-25
2023/03/10 07:34:25;;;;;;;23.17;17.85;;;11.40;98.90;;;;;;4590479;19;20769;-27
2023/03/10 07:35:57;;;;;;;22.07;18.73;;;11.40;99.00;;;;;;4591506;19;20011;-29
2023/03/10 07:37:30;;;;;;;23.67;18.40;;;11.40;99.00;;;;;;4591633;19;20516;-26
2023/03/10 07:39:01;;;;;;;22.77;18.52;;;11.40;99.00;;;;;;4591587;19;20441;-26
2023/03/10 07:40:34;;;;;;;21.37;17.60;;;11.40;99.00;;;;;;4592132;19;20006;-27
2023/03/10 07:42:09;;;;;;;23.80;19.17;;;11.50;99.10;;;;;;4590122;19;20780;-26
2023/03/10 07:43:40;;;;;;;24.95;19.63;;;11.40;99.00;;;;;;4591389;19;20445;-27
2023/03/10 07:45:12;;;;;;;31.70;22.67;;;11.40;99.20;;;;;;4590482;19;20633;-30
2023/03/10 07:46:45;;;;;;;32.63;23.90;;;11.40;99.10;;;;;;4593152;19;20007;-29
2023/03/10 07:48:16;;;;;;;32.97;23.17;;;11.40;99.20;;;;;;4592314;19;20457;-25
2023/03/10 07:49:49;;;;;;;38.40;28.17;;;11.50;99.20;;;;;;4590998;19;20015;-26
2023/03/10 07:51:21;;;;;;;67.32;40.45;;;11.40;99.20;;;;;;4591041;19;20426;-28
2023/03/10 07:52:53;;;;;;;95.07;58.13;;;11.50;99.30;;;;;;4591623;19;20505;-29
2023/03/10 07:54:26;;;;;;;134.60;74.97;;;11.40;99.30;;;;;;4590223;19;20007;-26
2023/03/10 07:55:57;;;;;;;76.88;46.33;;;11.40;99.30;;;;;;4590933;19;20425;-25
2023/03/10 07:57:28;;;;;;;103.55;58.08;;;11.40;99.30;;;;;;4591254;19;20491;-27
2023/03/10 07:58:59;;;;;;;155.02;96.03;;;11.40;99.40;;;;;;4590337;19;20070;-28
2023/03/10 08:00:31;;;;;;;98.75;80.72;;;11.40;99.40;;;;;;4589700;19;20014;-27
2023/03/10 08:02:03;;;;;;;47.73;40.77;;;11.40;99.50;;;;;;4589502;19;20477;-27